sensor_id;sensor_type;location;lat;lon;timestamp;P1;durP1;ratioP1;P2;durP2;ratioP2
359;SDS011;168;48.872;9.226;2023-07-29T00:02:17;5.63;;;4.87;;
359;SDS011;168;48.872;9.226;2023-07-29T00:04:44;6.33;;;4.87;;
359;SDS011;168;48.872;9.226;2023-07-29T00:07:12;5.00;;;4.50;;
359;SDS011;168;48.872;9.226;2023-07-29T00:09:39;5.70;;;3.93;;
359;SDS011;168;48.872;9.226;2023-07-29T00:12:08;4.63;;;4.23;;
359;SDS011;168;48.872;9.226;2023-07-29T00:14:36;4.10;;;3.70;;
359;SDS011;168;48.872;9.226;2023-07-29T00:17:03;4.93;;;4.00;;
359;SDS011;168;48.872;9.226;2023-07-29T00:19:31;4.70;;;4.30;;
359;SDS011;168;48.872;9.226;2023-07-29T00:21:59;4.83;;;4.33;;
359;SDS011;168;48.872;9.226;2023-07-29T00:24:26;4.87;;;4.40;;
359;SDS011;168;48.872;9.226;2023-07-29T00:26:54;4.87;;;4.27;;
359;SDS011;168;48.872;9.226;2023-07-29T00:29:24;5.40;;;4.87;;
359;SDS011;168;48.872;9.226;2023-07-29T00:31:52;5.13;;;4.57;;
359;SDS011;168;48.872;9.226;2023-07-29T00:34:20;5.90;;;5.17;;
359;SDS011;168;48.872;9.226;2023-07-29T00:36:47;6.50;;;5.13;;
359;SDS011;168;48.872;9.226;2023-07-29T00:39:14;4.87;;;4.37;;
359;SDS011;168;48.872;9.226;2023-07-29T00:41:42;5.83;;;5.20;;
359;SDS011;168;48.872;9.226;2023-07-29T00:44:09;5.17;;;4.67;;
359;SDS011;168;48.872;9.226;2023-07-29T00:46:38;6.40;;;5.80;;
359;SDS011;168;48.872;9.226;2023-07-29T00:49:07;6.20;;;5.60;;
359;SDS011;168;48.872;9.226;2023-07-29T00:51:35;6.03;;;5.00;;
359;SDS011;168;48.872;9.226;2023-07-29T00:54:03;5.57;;;4.80;;
359;SDS011;168;48.872;9.226;2023-07-29T00:56:30;6.07;;;4.70;;
359;SDS011;168;48.872;9.226;2023-07-29T00:58:58;9.13;;;4.47;;
359;SDS011;168;48.872;9.226;2023-07-29T01:01:27;4.83;;;4.20;;
359;SDS011;168;48.872;9.226;2023-07-29T01:03:56;7.40;;;4.40;;
359;SDS011;168;48.872;9.226;2023-07-29T01:06:27;5.20;;;3.80;;
359;SDS011;168;48.872;9.226;2023-07-29T01:09:01;5.53;;;4.90;;
359;SDS011;168;48.872;9.226;2023-07-29T01:11:33;7.23;;;4.10;;
359;SDS011;168;48.872;9.226;2023-07-29T01:14:10;4.50;;;4.10;;
359;SDS011;168;48.872;9.226;2023-07-29T01:16:47;4.93;;;4.23;;
359;SDS011;168;48.872;9.226;2023-07-29T01:19:25;3.63;;;3.33;;
359;SDS011;168;48.872;9.226;2023-07-29T01:22:07;4.30;;;3.90;;
359;SDS011;168;48.872;9.226;2023-07-29T01:24:37;4.20;;;3.80;;
359;SDS011;168;48.872;9.226;2023-07-29T01:27:04;3.77;;;3.40;;
359;SDS011;168;48.872;9.226;2023-07-29T01:29:32;3.70;;;3.40;;
359;SDS011;168;48.872;9.226;2023-07-29T01:32:01;4.83;;;3.30;;
359;SDS011;168;48.872;9.226;2023-07-29T01:34:35;3.23;;;2.93;;
359;SDS011;168;48.872;9.226;2023-07-29T01:37:12;3.20;;;2.90;;
359;SDS011;168;48.872;9.226;2023-07-29T01:39:48;3.33;;;2.97;;
359;SDS011;168;48.872;9.226;2023-07-29T01:42:17;3.40;;;3.10;;
359;SDS011;168;48.872;9.226;2023-07-29T01:44:44;4.90;;;3.30;;
359;SDS011;168;48.872;9.226;2023-07-29T01:47:12;4.10;;;3.70;;
359;SDS011;168;48.872;9.226;2023-07-29T01:49:39;4.13;;;3.23;;
359;SDS011;168;48.872;9.226;2023-07-29T01:52:07;4.50;;;4.10;;
359;SDS011;168;48.872;9.226;2023-07-29T01:54:37;3.50;;;3.20;;
359;SDS011;168;48.872;9.226;2023-07-29T01:57:06;4.80;;;3.70;;
359;SDS011;168;48.872;9.226;2023-07-29T01:59:34;3.90;;;3.50;;
359;SDS011;168;48.872;9.226;2023-07-29T02:02:01;4.23;;;3.83;;
359;SDS011;168;48.872;9.226;2023-07-29T02:04:29;3.70;;;3.40;;
359;SDS011;168;48.872;9.226;2023-07-29T02:06:56;4.63;;;3.53;;
359;SDS011;168;48.872;9.226;2023-07-29T02:09:24;3.67;;;3.17;;
359;SDS011;168;48.872;9.226;2023-07-29T02:11:53;3.53;;;3.13;;
359;SDS011;168;48.872;9.226;2023-07-29T02:14:21;4.50;;;3.50;;
359;SDS011;168;48.872;9.226;2023-07-29T02:16:49;3.53;;;3.23;;
359;SDS011;168;48.872;9.226;2023-07-29T02:19:17;3.43;;;3.03;;
359;SDS011;168;48.872;9.226;2023-07-29T02:21:44;3.83;;;3.53;;
359;SDS011;168;48.872;9.226;2023-07-29T02:24:11;4.30;;;3.50;;
359;SDS011;168;48.872;9.226;2023-07-29T02:26:39;3.90;;;3.50;;
359;SDS011;168;48.872;9.226;2023-07-29T02:29:06;3.33;;;3.03;;
359;SDS011;168;48.872;9.226;2023-07-29T02:31:35;3.60;;;3.03;;
359;SDS011;168;48.872;9.226;2023-07-29T02:34:03;3.10;;;2.77;;
359;SDS011;168;48.872;9.226;2023-07-29T02:36:30;3.60;;;3.10;;
359;SDS011;168;48.872;9.226;2023-07-29T02:38:58;3.13;;;2.80;;
359;SDS011;168;48.872;9.226;2023-07-29T02:41:25;3.60;;;3.13;;
359;SDS011;168;48.872;9.226;2023-07-29T02:43:53;3.13;;;2.83;;
359;SDS011;168;48.872;9.226;2023-07-29T02:46:20;2.90;;;2.33;;
359;SDS011;168;48.872;9.226;2023-07-29T02:48:50;3.63;;;2.67;;
359;SDS011;168;48.872;9.226;2023-07-29T02:51:18;4.10;;;3.30;;
359;SDS011;168;48.872;9.226;2023-07-29T02:53:45;5.03;;;3.43;;
359;SDS011;168;48.872;9.226;2023-07-29T02:56:13;3.57;;;3.20;;
359;SDS011;168;48.872;9.226;2023-07-29T02:58:40;3.67;;;3.27;;
359;SDS011;168;48.872;9.226;2023-07-29T03:01:08;3.20;;;2.77;;
359;SDS011;168;48.872;9.226;2023-07-29T03:03:35;3.43;;;2.87;;
359;SDS011;168;48.872;9.226;2023-07-29T03:06:04;3.10;;;2.80;;
359;SDS011;168;48.872;9.226;2023-07-29T03:08:33;2.97;;;2.67;;
359;SDS011;168;48.872;9.226;2023-07-29T03:11:04;3.27;;;2.97;;
359;SDS011;168;48.872;9.226;2023-07-29T03:13:34;3.00;;;2.30;;
359;SDS011;168;48.872;9.226;2023-07-29T03:16:05;3.97;;;2.83;;
359;SDS011;168;48.872;9.226;2023-07-29T03:18:33;3.00;;;2.40;;
359;SDS011;168;48.872;9.226;2023-07-29T03:21:00;3.17;;;2.37;;
359;SDS011;168;48.872;9.226;2023-07-29T03:23:30;4.50;;;2.63;;
359;SDS011;168;48.872;9.226;2023-07-29T03:25:59;4.67;;;2.70;;
359;SDS011;168;48.872;9.226;2023-07-29T03:28:31;3.50;;;3.00;;
359;SDS011;168;48.872;9.226;2023-07-29T03:30:59;3.70;;;3.00;;
359;SDS011;168;48.872;9.226;2023-07-29T03:33:27;3.30;;;2.90;;
359;SDS011;168;48.872;9.226;2023-07-29T03:35:54;4.77;;;2.57;;
359;SDS011;168;48.872;9.226;2023-07-29T03:38:22;3.47;;;2.80;;
359;SDS011;168;48.872;9.226;2023-07-29T03:40:51;3.03;;;2.73;;
359;SDS011;168;48.872;9.226;2023-07-29T03:43:18;4.40;;;2.70;;
359;SDS011;168;48.872;9.226;2023-07-29T03:45:46;3.90;;;2.60;;
359;SDS011;168;48.872;9.226;2023-07-29T03:48:14;6.60;;;3.40;;
359;SDS011;168;48.872;9.226;2023-07-29T03:50:41;3.63;;;2.57;;
359;SDS011;168;48.872;9.226;2023-07-29T03:53:08;3.03;;;2.63;;
359;SDS011;168;48.872;9.226;2023-07-29T03:55:36;3.53;;;2.90;;
359;SDS011;168;48.872;9.226;2023-07-29T03:58:05;3.77;;;3.00;;
359;SDS011;168;48.872;9.226;2023-07-29T04:00:33;7.13;;;3.30;;
359;SDS011;168;48.872;9.226;2023-07-29T04:03:01;3.70;;;3.10;;
359;SDS011;168;48.872;9.226;2023-07-29T04:05:28;4.30;;;3.20;;
359;SDS011;168;48.872;9.226;2023-07-29T04:07:56;5.40;;;3.20;;
359;SDS011;168;48.872;9.226;2023-07-29T04:10:24;4.90;;;3.10;;
359;SDS011;168;48.872;9.226;2023-07-29T04:12:51;4.57;;;3.33;;
359;SDS011;168;48.872;9.226;2023-07-29T04:15:20;3.70;;;3.30;;
359;SDS011;168;48.872;9.226;2023-07-29T04:17:48;3.27;;;2.97;;
359;SDS011;168;48.872;9.226;2023-07-29T04:20:15;3.40;;;2.97;;
359;SDS011;168;48.872;9.226;2023-07-29T04:22:43;3.60;;;3.30;;
359;SDS011;168;48.872;9.226;2023-07-29T04:25:10;4.30;;;3.10;;
359;SDS011;168;48.872;9.226;2023-07-29T04:27:38;3.80;;;3.40;;
359;SDS011;168;48.872;9.226;2023-07-29T04:30:06;3.90;;;3.30;;
359;SDS011;168;48.872;9.226;2023-07-29T04:32:38;4.70;;;2.93;;
359;SDS011;168;48.872;9.226;2023-07-29T04:35:07;3.50;;;3.20;;
359;SDS011;168;48.872;9.226;2023-07-29T04:37:35;4.10;;;3.43;;
359;SDS011;168;48.872;9.226;2023-07-29T04:40:03;3.40;;;2.80;;
359;SDS011;168;48.872;9.226;2023-07-29T04:42:31;4.03;;;3.50;;
359;SDS011;168;48.872;9.226;2023-07-29T04:44:58;3.20;;;2.67;;
359;SDS011;168;48.872;9.226;2023-07-29T04:47:26;3.63;;;3.33;;
359;SDS011;168;48.872;9.226;2023-07-29T04:49:54;4.07;;;3.63;;
359;SDS011;168;48.872;9.226;2023-07-29T04:52:22;4.70;;;4.17;;
359;SDS011;168;48.872;9.226;2023-07-29T04:54:49;4.10;;;3.50;;
359;SDS011;168;48.872;9.226;2023-07-29T04:57:17;5.10;;;3.20;;
359;SDS011;168;48.872;9.226;2023-07-29T04:59:44;4.43;;;3.57;;
359;SDS011;168;48.872;9.226;2023-07-29T05:02:12;3.87;;;3.30;;
359;SDS011;168;48.872;9.226;2023-07-29T05:04:39;4.90;;;3.80;;
359;SDS011;168;48.872;9.226;2023-07-29T05:07:08;4.10;;;3.70;;
359;SDS011;168;48.872;9.226;2023-07-29T05:09:35;4.33;;;3.93;;
359;SDS011;168;48.872;9.226;2023-07-29T05:12:03;4.47;;;4.07;;
359;SDS011;168;48.872;9.226;2023-07-29T05:14:31;6.13;;;4.00;;
359;SDS011;168;48.872;9.226;2023-07-29T05:16:59;4.33;;;3.93;;
359;SDS011;168;48.872;9.226;2023-07-29T05:19:26;4.77;;;4.27;;
359;SDS011;168;48.872;9.226;2023-07-29T05:21:54;4.60;;;4.10;;
359;SDS011;168;48.872;9.226;2023-07-29T05:24:22;5.40;;;4.90;;
359;SDS011;168;48.872;9.226;2023-07-29T05:26:50;5.87;;;4.17;;
359;SDS011;168;48.872;9.226;2023-07-29T05:29:17;4.73;;;4.23;;
359;SDS011;168;48.872;9.226;2023-07-29T05:31:44;4.87;;;3.63;;
359;SDS011;168;48.872;9.226;2023-07-29T05:34:12;5.33;;;3.63;;
359;SDS011;168;48.872;9.226;2023-07-29T05:36:39;4.50;;;3.87;;
359;SDS011;168;48.872;9.226;2023-07-29T05:39:07;4.47;;;3.70;;
359;SDS011;168;48.872;9.226;2023-07-29T05:41:35;6.40;;;4.10;;
359;SDS011;168;48.872;9.226;2023-07-29T05:44:03;3.67;;;3.10;;
359;SDS011;168;48.872;9.226;2023-07-29T05:46:30;3.63;;;2.87;;
359;SDS011;168;48.872;9.226;2023-07-29T05:48:58;2.73;;;2.43;;
359;SDS011;168;48.872;9.226;2023-07-29T05:51:25;5.90;;;3.20;;
359;SDS011;168;48.872;9.226;2023-07-29T05:53:53;3.03;;;2.70;;
359;SDS011;168;48.872;9.226;2023-07-29T05:56:21;4.60;;;3.13;;
359;SDS011;168;48.872;9.226;2023-07-29T05:58:49;3.30;;;2.80;;
359;SDS011;168;48.872;9.226;2023-07-29T06:01:17;3.47;;;2.63;;
359;SDS011;168;48.872;9.226;2023-07-29T06:03:46;3.27;;;2.70;;
359;SDS011;168;48.872;9.226;2023-07-29T06:06:14;3.50;;;2.87;;
359;SDS011;168;48.872;9.226;2023-07-29T06:08:41;3.00;;;2.70;;
359;SDS011;168;48.872;9.226;2023-07-29T06:11:09;3.57;;;3.20;;
359;SDS011;168;48.872;9.226;2023-07-29T06:13:38;3.67;;;2.70;;
359;SDS011;168;48.872;9.226;2023-07-29T06:16:17;4.10;;;2.80;;
359;SDS011;168;48.872;9.226;2023-07-29T06:18:45;4.20;;;2.83;;
359;SDS011;168;48.872;9.226;2023-07-29T06:21:12;3.23;;;2.60;;
359;SDS011;168;48.872;9.226;2023-07-29T06:23:42;4.23;;;3.20;;
359;SDS011;168;48.872;9.226;2023-07-29T06:26:10;3.43;;;2.20;;
359;SDS011;168;48.872;9.226;2023-07-29T06:28:37;3.60;;;2.60;;
359;SDS011;168;48.872;9.226;2023-07-29T06:31:04;2.50;;;2.20;;
359;SDS011;168;48.872;9.226;2023-07-29T06:33:33;3.10;;;2.50;;
359;SDS011;168;48.872;9.226;2023-07-29T06:36:01;3.50;;;2.50;;
359;SDS011;168;48.872;9.226;2023-07-29T06:38:29;3.93;;;2.50;;
359;SDS011;168;48.872;9.226;2023-07-29T06:40:56;4.37;;;2.97;;
359;SDS011;168;48.872;9.226;2023-07-29T06:43:24;2.93;;;2.17;;
359;SDS011;168;48.872;9.226;2023-07-29T06:45:53;2.90;;;2.50;;
359;SDS011;168;48.872;9.226;2023-07-29T06:48:21;3.53;;;2.80;;
359;SDS011;168;48.872;9.226;2023-07-29T06:50:50;3.10;;;2.47;;
359;SDS011;168;48.872;9.226;2023-07-29T06:53:17;3.20;;;2.60;;
359;SDS011;168;48.872;9.226;2023-07-29T06:55:46;3.17;;;2.77;;
359;SDS011;168;48.872;9.226;2023-07-29T06:58:13;2.87;;;2.43;;
359;SDS011;168;48.872;9.226;2023-07-29T07:00:41;3.50;;;3.10;;
359;SDS011;168;48.872;9.226;2023-07-29T07:03:08;3.13;;;2.80;;
359;SDS011;168;48.872;9.226;2023-07-29T07:05:36;3.37;;;2.47;;
359;SDS011;168;48.872;9.226;2023-07-29T07:08:08;4.33;;;2.90;;
359;SDS011;168;48.872;9.226;2023-07-29T07:10:36;3.60;;;2.63;;
359;SDS011;168;48.872;9.226;2023-07-29T07:13:05;4.03;;;2.80;;
359;SDS011;168;48.872;9.226;2023-07-29T07:15:33;3.67;;;2.80;;
359;SDS011;168;48.872;9.226;2023-07-29T07:18:00;6.77;;;3.27;;
359;SDS011;168;48.872;9.226;2023-07-29T07:20:28;4.50;;;2.83;;
359;SDS011;168;48.872;9.226;2023-07-29T07:22:55;3.33;;;2.90;;
359;SDS011;168;48.872;9.226;2023-07-29T07:25:24;4.53;;;2.60;;
359;SDS011;168;48.872;9.226;2023-07-29T07:27:52;3.03;;;2.70;;
359;SDS011;168;48.872;9.226;2023-07-29T07:30:20;3.50;;;2.57;;
359;SDS011;168;48.872;9.226;2023-07-29T07:32:47;3.20;;;2.60;;
359;SDS011;168;48.872;9.226;2023-07-29T07:35:22;3.27;;;2.40;;
359;SDS011;168;48.872;9.226;2023-07-29T07:37:51;3.77;;;2.80;;
359;SDS011;168;48.872;9.226;2023-07-29T07:40:21;3.20;;;2.70;;
359;SDS011;168;48.872;9.226;2023-07-29T07:42:50;3.50;;;2.80;;
359;SDS011;168;48.872;9.226;2023-07-29T07:45:18;3.03;;;2.70;;
359;SDS011;168;48.872;9.226;2023-07-29T07:47:46;3.30;;;2.67;;
359;SDS011;168;48.872;9.226;2023-07-29T07:50:13;4.27;;;2.77;;
359;SDS011;168;48.872;9.226;2023-07-29T07:52:41;5.37;;;3.10;;
359;SDS011;168;48.872;9.226;2023-07-29T07:55:08;3.90;;;2.60;;
359;SDS011;168;48.872;9.226;2023-07-29T07:57:36;2.80;;;2.40;;
359;SDS011;168;48.872;9.226;2023-07-29T08:00:06;3.90;;;2.87;;
359;SDS011;168;48.872;9.226;2023-07-29T08:02:35;4.03;;;2.47;;
359;SDS011;168;48.872;9.226;2023-07-29T08:05:02;3.50;;;2.50;;
359;SDS011;168;48.872;9.226;2023-07-29T08:07:30;3.30;;;2.70;;
359;SDS011;168;48.872;9.226;2023-07-29T08:09:57;3.53;;;2.40;;
359;SDS011;168;48.872;9.226;2023-07-29T08:12:24;4.57;;;2.70;;
359;SDS011;168;48.872;9.226;2023-07-29T08:15:01;4.77;;;2.23;;
359;SDS011;168;48.872;9.226;2023-07-29T08:17:35;2.50;;;2.10;;
359;SDS011;168;48.872;9.226;2023-07-29T08:20:06;2.60;;;1.63;;
359;SDS011;168;48.872;9.226;2023-07-29T08:22:35;3.10;;;1.80;;
359;SDS011;168;48.872;9.226;2023-07-29T08:25:03;2.40;;;1.40;;
359;SDS011;168;48.872;9.226;2023-07-29T08:27:32;2.77;;;1.50;;
359;SDS011;168;48.872;9.226;2023-07-29T08:30:00;2.40;;;1.30;;
359;SDS011;168;48.872;9.226;2023-07-29T08:32:28;2.47;;;1.37;;
359;SDS011;168;48.872;9.226;2023-07-29T08:34:56;3.00;;;1.47;;
359;SDS011;168;48.872;9.226;2023-07-29T08:37:24;2.63;;;1.30;;
359;SDS011;168;48.872;9.226;2023-07-29T08:39:52;2.60;;;1.40;;
359;SDS011;168;48.872;9.226;2023-07-29T08:42:20;3.80;;;1.40;;
359;SDS011;168;48.872;9.226;2023-07-29T08:44:49;2.13;;;1.63;;
359;SDS011;168;48.872;9.226;2023-07-29T08:47:39;2.23;;;1.57;;
359;SDS011;168;48.872;9.226;2023-07-29T08:50:08;4.23;;;1.87;;
359;SDS011;168;48.872;9.226;2023-07-29T08:52:40;2.20;;;1.40;;
359;SDS011;168;48.872;9.226;2023-07-29T08:55:10;2.57;;;1.60;;
359;SDS011;168;48.872;9.226;2023-07-29T08:57:37;2.47;;;1.40;;
359;SDS011;168;48.872;9.226;2023-07-29T09:00:06;2.57;;;1.60;;
359;SDS011;168;48.872;9.226;2023-07-29T09:02:39;2.00;;;1.43;;
359;SDS011;168;48.872;9.226;2023-07-29T09:05:16;2.80;;;1.60;;
359;SDS011;168;48.872;9.226;2023-07-29T09:07:43;2.03;;;1.23;;
359;SDS011;168;48.872;9.226;2023-07-29T09:10:13;2.10;;;1.47;;
359;SDS011;168;48.872;9.226;2023-07-29T09:12:41;1.80;;;1.43;;
359;SDS011;168;48.872;9.226;2023-07-29T09:15:09;2.20;;;1.33;;
359;SDS011;168;48.872;9.226;2023-07-29T09:17:37;2.80;;;1.47;;
359;SDS011;168;48.872;9.226;2023-07-29T09:20:09;2.53;;;1.33;;
359;SDS011;168;48.872;9.226;2023-07-29T09:22:38;3.07;;;1.60;;
359;SDS011;168;48.872;9.226;2023-07-29T09:25:06;1.70;;;1.20;;
359;SDS011;168;48.872;9.226;2023-07-29T09:27:34;2.17;;;1.30;;
359;SDS011;168;48.872;9.226;2023-07-29T09:30:05;2.27;;;1.20;;
359;SDS011;168;48.872;9.226;2023-07-29T09:32:42;2.00;;;1.07;;
359;SDS011;168;48.872;9.226;2023-07-29T09:35:10;3.03;;;1.50;;
359;SDS011;168;48.872;9.226;2023-07-29T09:37:40;1.70;;;1.10;;
359;SDS011;168;48.872;9.226;2023-07-29T09:40:13;2.30;;;1.60;;
359;SDS011;168;48.872;9.226;2023-07-29T09:42:47;2.17;;;1.40;;
359;SDS011;168;48.872;9.226;2023-07-29T09:45:19;3.37;;;1.60;;
359;SDS011;168;48.872;9.226;2023-07-29T09:47:47;1.87;;;1.40;;
359;SDS011;168;48.872;9.226;2023-07-29T09:50:15;1.80;;;1.10;;
359;SDS011;168;48.872;9.226;2023-07-29T09:52:44;2.37;;;1.67;;
359;SDS011;168;48.872;9.226;2023-07-29T09:55:16;2.00;;;1.40;;
359;SDS011;168;48.872;9.226;2023-07-29T09:57:45;2.07;;;1.40;;
359;SDS011;168;48.872;9.226;2023-07-29T10:00:12;3.60;;;1.97;;
359;SDS011;168;48.872;9.226;2023-07-29T10:02:41;3.03;;;1.40;;
359;SDS011;168;48.872;9.226;2023-07-29T10:05:10;2.10;;;1.23;;
359;SDS011;168;48.872;9.226;2023-07-29T10:07:38;2.30;;;1.67;;
359;SDS011;168;48.872;9.226;2023-07-29T10:10:08;3.50;;;1.80;;
359;SDS011;168;48.872;9.226;2023-07-29T10:12:36;2.70;;;1.57;;
359;SDS011;168;48.872;9.226;2023-07-29T10:15:08;2.13;;;1.40;;
359;SDS011;168;48.872;9.226;2023-07-29T10:17:36;2.90;;;2.03;;
359;SDS011;168;48.872;9.226;2023-07-29T10:20:06;3.80;;;1.70;;
359;SDS011;168;48.872;9.226;2023-07-29T10:22:36;2.60;;;1.53;;
359;SDS011;168;48.872;9.226;2023-07-29T10:25:09;3.00;;;1.90;;
359;SDS011;168;48.872;9.226;2023-07-29T10:27:43;2.93;;;1.60;;
359;SDS011;168;48.872;9.226;2023-07-29T10:30:12;4.03;;;1.60;;
359;SDS011;168;48.872;9.226;2023-07-29T10:32:41;1.63;;;1.17;;
359;SDS011;168;48.872;9.226;2023-07-29T10:35:10;1.80;;;1.30;;
359;SDS011;168;48.872;9.226;2023-07-29T10:37:38;1.83;;;1.23;;
359;SDS011;168;48.872;9.226;2023-07-29T10:40:09;2.00;;;1.40;;
359;SDS011;168;48.872;9.226;2023-07-29T10:42:38;2.10;;;1.50;;
359;SDS011;168;48.872;9.226;2023-07-29T10:45:25;2.20;;;1.63;;
359;SDS011;168;48.872;9.226;2023-07-29T10:47:53;2.03;;;1.40;;
359;SDS011;168;48.872;9.226;2023-07-29T10:50:21;2.87;;;1.33;;
359;SDS011;168;48.872;9.226;2023-07-29T10:52:49;2.00;;;1.30;;
359;SDS011;168;48.872;9.226;2023-07-29T10:55:29;4.90;;;1.50;;
359;SDS011;168;48.872;9.226;2023-07-29T10:58:14;1.80;;;1.10;;
359;SDS011;168;48.872;9.226;2023-07-29T11:00:45;1.70;;;1.20;;
359;SDS011;168;48.872;9.226;2023-07-29T11:03:13;1.80;;;1.20;;
359;SDS011;168;48.872;9.226;2023-07-29T11:05:48;1.60;;;0.90;;
359;SDS011;168;48.872;9.226;2023-07-29T11:08:23;2.20;;;1.20;;
359;SDS011;168;48.872;9.226;2023-07-29T11:11:01;2.43;;;1.33;;
359;SDS011;168;48.872;9.226;2023-07-29T11:13:32;4.70;;;1.57;;
359;SDS011;168;48.872;9.226;2023-07-29T11:16:01;2.37;;;1.60;;
359;SDS011;168;48.872;9.226;2023-07-29T11:18:29;1.93;;;1.20;;
359;SDS011;168;48.872;9.226;2023-07-29T11:20:58;1.80;;;1.30;;
359;SDS011;168;48.872;9.226;2023-07-29T11:23:29;2.03;;;1.50;;
359;SDS011;168;48.872;9.226;2023-07-29T11:25:57;2.00;;;1.30;;
359;SDS011;168;48.872;9.226;2023-07-29T11:28:27;1.90;;;1.10;;
359;SDS011;168;48.872;9.226;2023-07-29T11:30:56;3.43;;;1.00;;
359;SDS011;168;48.872;9.226;2023-07-29T11:33:25;2.17;;;1.30;;
359;SDS011;168;48.872;9.226;2023-07-29T11:35:54;1.70;;;1.00;;
359;SDS011;168;48.872;9.226;2023-07-29T11:38:22;1.83;;;1.10;;
359;SDS011;168;48.872;9.226;2023-07-29T11:40:56;1.97;;;0.93;;
359;SDS011;168;48.872;9.226;2023-07-29T11:43:27;1.87;;;1.07;;
359;SDS011;168;48.872;9.226;2023-07-29T11:45:54;3.07;;;1.13;;
359;SDS011;168;48.872;9.226;2023-07-29T11:48:27;1.70;;;1.00;;
359;SDS011;168;48.872;9.226;2023-07-29T11:50:55;2.00;;;1.30;;
359;SDS011;168;48.872;9.226;2023-07-29T11:53:25;1.63;;;1.03;;
359;SDS011;168;48.872;9.226;2023-07-29T11:55:55;1.43;;;0.83;;
359;SDS011;168;48.872;9.226;2023-07-29T11:58:23;1.87;;;1.20;;
359;SDS011;168;48.872;9.226;2023-07-29T12:00:51;2.50;;;1.00;;
359;SDS011;168;48.872;9.226;2023-07-29T12:03:19;1.57;;;0.97;;
359;SDS011;168;48.872;9.226;2023-07-29T12:05:46;2.27;;;1.33;;
359;SDS011;168;48.872;9.226;2023-07-29T12:08:17;2.20;;;1.50;;
359;SDS011;168;48.872;9.226;2023-07-29T12:10:44;1.80;;;1.20;;
359;SDS011;168;48.872;9.226;2023-07-29T12:13:12;2.23;;;1.20;;
359;SDS011;168;48.872;9.226;2023-07-29T12:15:40;2.20;;;1.23;;
359;SDS011;168;48.872;9.226;2023-07-29T12:18:08;2.13;;;1.53;;
359;SDS011;168;48.872;9.226;2023-07-29T12:20:36;2.53;;;1.37;;
359;SDS011;168;48.872;9.226;2023-07-29T12:23:03;2.10;;;1.70;;
359;SDS011;168;48.872;9.226;2023-07-29T12:25:32;1.63;;;1.13;;
359;SDS011;168;48.872;9.226;2023-07-29T12:28:02;2.30;;;1.80;;
359;SDS011;168;48.872;9.226;2023-07-29T12:30:32;2.07;;;1.50;;
359;SDS011;168;48.872;9.226;2023-07-29T12:32:59;2.27;;;1.60;;
359;SDS011;168;48.872;9.226;2023-07-29T12:35:35;2.60;;;2.00;;
359;SDS011;168;48.872;9.226;2023-07-29T12:38:03;2.63;;;1.70;;
359;SDS011;168;48.872;9.226;2023-07-29T12:40:30;2.60;;;1.73;;
359;SDS011;168;48.872;9.226;2023-07-29T12:42:58;2.90;;;1.80;;
359;SDS011;168;48.872;9.226;2023-07-29T12:45:25;2.30;;;2.03;;
359;SDS011;168;48.872;9.226;2023-07-29T12:47:54;3.10;;;2.33;;
359;SDS011;168;48.872;9.226;2023-07-29T12:50:22;2.20;;;1.60;;
359;SDS011;168;48.872;9.226;2023-07-29T12:52:51;2.10;;;1.60;;
359;SDS011;168;48.872;9.226;2023-07-29T12:55:18;2.67;;;2.10;;
359;SDS011;168;48.872;9.226;2023-07-29T12:57:45;2.13;;;1.70;;
359;SDS011;168;48.872;9.226;2023-07-29T13:00:13;2.30;;;1.77;;
359;SDS011;168;48.872;9.226;2023-07-29T13:02:40;2.50;;;1.90;;
359;SDS011;168;48.872;9.226;2023-07-29T13:05:09;2.90;;;1.70;;
359;SDS011;168;48.872;9.226;2023-07-29T13:07:37;2.20;;;1.70;;
359;SDS011;168;48.872;9.226;2023-07-29T13:10:07;2.60;;;1.60;;
359;SDS011;168;48.872;9.226;2023-07-29T13:12:35;2.37;;;1.60;;
359;SDS011;168;48.872;9.226;2023-07-29T13:15:03;2.90;;;1.93;;
359;SDS011;168;48.872;9.226;2023-07-29T13:17:31;2.10;;;1.33;;
359;SDS011;168;48.872;9.226;2023-07-29T13:19:59;2.57;;;2.23;;
359;SDS011;168;48.872;9.226;2023-07-29T13:22:26;2.37;;;1.83;;
359;SDS011;168;48.872;9.226;2023-07-29T13:24:54;2.93;;;2.37;;
359;SDS011;168;48.872;9.226;2023-07-29T13:27:23;2.30;;;1.77;;
359;SDS011;168;48.872;9.226;2023-07-29T13:29:52;3.80;;;2.30;;
359;SDS011;168;48.872;9.226;2023-07-29T13:32:21;2.70;;;1.70;;
359;SDS011;168;48.872;9.226;2023-07-29T13:34:49;2.40;;;1.80;;
359;SDS011;168;48.872;9.226;2023-07-29T13:37:17;2.47;;;1.80;;
359;SDS011;168;48.872;9.226;2023-07-29T13:39:44;2.77;;;1.87;;
359;SDS011;168;48.872;9.226;2023-07-29T13:42:11;2.50;;;1.87;;
359;SDS011;168;48.872;9.226;2023-07-29T13:44:40;2.33;;;1.60;;
359;SDS011;168;48.872;9.226;2023-07-29T13:47:08;2.43;;;2.00;;
359;SDS011;168;48.872;9.226;2023-07-29T13:49:35;2.47;;;2.00;;
359;SDS011;168;48.872;9.226;2023-07-29T13:52:03;2.50;;;1.93;;
359;SDS011;168;48.872;9.226;2023-07-29T13:54:30;1.97;;;1.53;;
359;SDS011;168;48.872;9.226;2023-07-29T13:56:58;6.90;;;2.13;;
359;SDS011;168;48.872;9.226;2023-07-29T13:59:25;2.10;;;1.30;;
359;SDS011;168;48.872;9.226;2023-07-29T14:01:54;4.37;;;1.77;;
359;SDS011;168;48.872;9.226;2023-07-29T14:04:21;2.47;;;2.00;;
359;SDS011;168;48.872;9.226;2023-07-29T14:06:49;2.23;;;1.57;;
359;SDS011;168;48.872;9.226;2023-07-29T14:09:16;2.10;;;1.50;;
359;SDS011;168;48.872;9.226;2023-07-29T14:11:44;3.60;;;1.97;;
359;SDS011;168;48.872;9.226;2023-07-29T14:14:12;2.40;;;1.90;;
359;SDS011;168;48.872;9.226;2023-07-29T14:16:39;2.23;;;1.77;;
359;SDS011;168;48.872;9.226;2023-07-29T14:19:08;2.57;;;1.63;;
359;SDS011;168;48.872;9.226;2023-07-29T14:21:36;3.60;;;1.93;;
359;SDS011;168;48.872;9.226;2023-07-29T14:24:03;2.50;;;1.90;;
359;SDS011;168;48.872;9.226;2023-07-29T14:26:32;2.63;;;1.70;;
359;SDS011;168;48.872;9.226;2023-07-29T14:28:59;2.13;;;1.70;;
359;SDS011;168;48.872;9.226;2023-07-29T14:31:27;2.40;;;1.70;;
359;SDS011;168;48.872;9.226;2023-07-29T14:33:54;2.20;;;1.80;;
359;SDS011;168;48.872;9.226;2023-07-29T14:36:23;2.60;;;1.80;;
359;SDS011;168;48.872;9.226;2023-07-29T14:38:50;2.47;;;2.17;;
359;SDS011;168;48.872;9.226;2023-07-29T14:41:18;4.70;;;2.20;;
359;SDS011;168;48.872;9.226;2023-07-29T14:43:47;2.47;;;2.10;;
359;SDS011;168;48.872;9.226;2023-07-29T14:46:14;3.27;;;2.97;;
359;SDS011;168;48.872;9.226;2023-07-29T14:48:42;3.03;;;2.23;;
359;SDS011;168;48.872;9.226;2023-07-29T14:51:10;3.10;;;2.60;;
359;SDS011;168;48.872;9.226;2023-07-29T14:53:39;4.27;;;3.07;;
359;SDS011;168;48.872;9.226;2023-07-29T14:56:06;3.60;;;3.00;;
359;SDS011;168;48.872;9.226;2023-07-29T14:58:34;2.50;;;2.00;;
359;SDS011;168;48.872;9.226;2023-07-29T15:01:02;2.73;;;2.07;;
359;SDS011;168;48.872;9.226;2023-07-29T15:03:30;2.70;;;2.07;;
359;SDS011;168;48.872;9.226;2023-07-29T15:05:57;2.53;;;2.10;;
359;SDS011;168;48.872;9.226;2023-07-29T15:08:26;2.90;;;2.60;;
359;SDS011;168;48.872;9.226;2023-07-29T15:10:55;2.63;;;2.43;;
359;SDS011;168;48.872;9.226;2023-07-29T15:13:25;2.50;;;2.10;;
359;SDS011;168;48.872;9.226;2023-07-29T15:15:52;2.00;;;1.80;;
359;SDS011;168;48.872;9.226;2023-07-29T15:18:20;2.40;;;2.10;;
359;SDS011;168;48.872;9.226;2023-07-29T15:20:47;2.30;;;1.70;;
359;SDS011;168;48.872;9.226;2023-07-29T15:23:15;2.73;;;2.00;;
359;SDS011;168;48.872;9.226;2023-07-29T15:25:43;3.10;;;2.60;;
359;SDS011;168;48.872;9.226;2023-07-29T15:28:13;2.30;;;1.87;;
359;SDS011;168;48.872;9.226;2023-07-29T15:30:41;3.10;;;1.97;;
359;SDS011;168;48.872;9.226;2023-07-29T15:33:08;2.50;;;1.97;;
359;SDS011;168;48.872;9.226;2023-07-29T15:35:36;2.10;;;1.77;;
359;SDS011;168;48.872;9.226;2023-07-29T15:38:04;2.30;;;1.80;;
359;SDS011;168;48.872;9.226;2023-07-29T15:40:32;2.30;;;1.83;;
359;SDS011;168;48.872;9.226;2023-07-29T15:43:01;2.67;;;2.07;;
359;SDS011;168;48.872;9.226;2023-07-29T15:45:30;2.70;;;2.00;;
359;SDS011;168;48.872;9.226;2023-07-29T15:47:58;3.13;;;2.40;;
359;SDS011;168;48.872;9.226;2023-07-29T15:50:25;2.63;;;2.30;;
359;SDS011;168;48.872;9.226;2023-07-29T15:52:52;3.47;;;2.00;;
359;SDS011;168;48.872;9.226;2023-07-29T15:55:20;2.93;;;2.20;;